Time;durP1;ratioP1;P1;durP2;ratioP2;P2;SDS_P1;SDS_P2;PMS_P1;PMS_P2;Temp;Humidity;BMP_temperature;BMP_pressure;BME280_temperature;BME280_humidity;BME280_pressure;Samples;Min_cycle;Max_cycle;Signal;HPM_P1;HPM_P2
2022/06/21 00:00:14;;;;;;;8.23;2.72;;;;;;;19.07;59.49;100843.94;5074212;28;20049;-66
2022/06/21 00:02:43;;;;;;;8.15;3.17;;;;;;;19.16;59.51;100829.75;5028411;28;20627;-66
2022/06/21 00:05:34;;;;;;;9.18;3.00;;;;;;;19.04;60.05;100813.94;5073511;28;20044;-65
2022/06/21 00:08:03;;;;;;;8.38;3.38;;;;;;;18.94;60.47;100809.78;5057908;28;20052;-66
2022/06/21 00:10:34;;;;;;;8.27;2.83;;;;;;;19.03;60.18;100815.94;5076343;28;20057;-65
2022/06/21 00:13:07;;;;;;;7.68;3.08;;;;;;;18.91;60.68;100809.72;5062197;28;20581;-66
2022/06/21 00:15:34;;;;;;;7.97;2.90;;;;;;;18.80;60.88;100795.53;5069871;28;20044;-66
2022/06/21 00:18:02;;;;;;;8.55;3.03;;;;;;;18.89;60.62;100789.72;5045322;28;20055;-65
2022/06/21 00:20:29;;;;;;;9.80;3.30;;;;;;;18.93;60.52;100796.19;5058155;28;20495;-66
2022/06/21 00:22:56;;;;;;;8.93;3.58;;;;;;;18.84;61.10;100792.81;5075733;28;20514;-66
2022/06/21 00:25:25;;;;;;;6.28;2.60;;;;;;;18.73;61.33;100791.75;5073699;28;20056;-66
2022/06/21 00:27:54;;;;;;;7.50;3.38;;;;;;;18.74;61.62;100793.41;5063837;28;20077;-66
2022/06/21 00:30:22;;;;;;;10.60;3.45;;;;;;;18.75;61.52;100798.59;5075903;28;20534;-65
2022/06/21 00:32:51;;;;;;;10.60;3.45;;;;;;;18.74;61.38;100804.56;5057953;28;20052;-66
2022/06/21 00:35:21;;;;;;;11.85;3.55;;;;;;;18.71;61.59;100802.47;5058051;28;20055;-64
2022/06/21 00:37:49;;;;;;;8.27;3.30;;;;;;;18.74;61.55;100796.19;5073053;28;20059;-66
2022/06/21 00:40:18;;;;;;;9.48;3.53;;;;;;;18.70;61.62;100801.69;5056906;28;20057;-66
2022/06/21 00:42:48;;;;;;;8.48;3.00;;;;;;;18.69;61.64;100799.28;5073812;28;20052;-66
2022/06/21 00:45:23;;;;;;;7.25;3.30;;;;;;;18.75;61.74;100804.19;5057515;28;20057;-66
2022/06/21 00:47:54;;;;;;;11.35;3.50;;;;;;;18.68;61.63;100800.44;5086840;28;22109;-66
2022/06/21 00:50:28;;;;;;;8.10;3.47;;;;;;;18.73;61.12;100792.59;5049615;28;20072;-66
2022/06/21 00:53:05;;;;;;;9.93;3.53;;;;;;;18.72;61.42;100793.78;5088751;28;20057;-67
2022/06/21 00:56:01;;;;;;;9.60;3.83;;;;;;;18.68;61.34;100804.03;5076051;28;20060;-65
2022/06/21 00:58:30;;;;;;;11.43;3.58;;;;;;;18.63;61.74;100814.66;5072809;28;20610;-65
2022/06/21 01:01:24;;;;;;;13.02;3.50;;;;;;;18.61;61.33;100803.06;5070114;28;20052;-67
2022/06/21 01:03:57;;;;;;;16.27;4.47;;;;;;;18.37;62.34;100803.28;5052915;28;20049;-66
2022/06/21 01:06:36;;;;;;;12.07;4.75;;;;;;;18.50;61.99;100819.56;5073563;28;20052;-66
2022/06/21 01:09:11;;;;;;;9.20;4.10;;;;;;;18.55;61.86;100821.28;5041026;28;20435;-66
2022/06/21 01:11:41;;;;;;;11.27;4.00;;;;;;;18.56;61.72;100803.34;5088086;28;20049;-66
2022/06/21 01:14:09;;;;;;;;;;;;;;;18.36;62.39;100812.84;5055857;28;20055;-66
2022/06/21 01:16:37;;;;;;;10.85;4.38;;;;;;;18.30;62.72;100814.28;5068396;28;19931;-66
2022/06/21 01:19:14;;;;;;;15.05;4.10;;;;;;;18.51;62.31;100809.22;5073058;28;20036;-66
2022/06/21 01:21:43;;;;;;;12.07;4.65;;;;;;;18.40;62.37;100822.06;5069355;28;20049;-67
2022/06/21 01:24:36;;;;;;;9.50;4.10;;;;;;;18.47;62.45;100814.72;5053913;28;20490;-66
2022/06/21 01:27:04;;;;;;;10.57;4.00;;;;;;;18.64;61.85;100824.66;5019991;28;20055;-66
2022/06/21 01:29:33;;;;;;;10.10;4.25;;;;;;;18.69;61.54;100821.59;5055434;28;20059;-65
2022/06/21 01:32:04;;;;;;;11.57;3.60;;;;;;;18.52;61.63;100811.63;5061068;28;20060;-67
2022/06/21 01:34:32;;;;;;;10.18;3.90;;;;;;;18.54;61.91;100809.31;5056087;28;20060;-66
2022/06/21 01:37:08;;;;;;;8.70;3.88;;;;;;;18.64;61.86;100808.72;5054098;28;20056;-66
2022/06/21 01:40:25;;;;;;;9.27;4.10;;;;;;;18.55;61.44;100818.50;5089327;28;20048;-66
2022/06/21 01:42:54;;;;;;;10.43;3.80;;;;;;;18.51;61.90;100832.34;4991131;28;20073;-65
2022/06/21 01:45:25;;;;;;;9.40;3.92;;;;;;;18.61;61.75;100833.75;4991230;28;20058;-65
2022/06/21 01:48:01;;;;;;;13.93;4.13;;;;;;;18.74;61.21;100836.03;5012937;28;20060;-66
2022/06/21 01:50:29;;;;;;;9.15;3.85;;;;;;;18.82;61.09;100857.38;5002832;28;20056;-65
2022/06/21 01:52:56;;;;;;;8.57;3.50;;;;;;;18.80;61.33;100867.28;5032785;28;20060;-66
2022/06/21 01:55:26;;;;;;;11.30;3.75;;;;;;;18.76;61.20;100886.72;5033447;28;20080;-65
2022/06/21 01:57:56;;;;;;;10.63;3.65;;;;;;;19.08;60.48;100902.22;5017006;28;20061;-66
2022/06/21 02:00:24;;;;;;;11.02;3.40;;;;;;;19.03;60.16;100905.31;5033056;28;20065;-66
2022/06/21 02:03:01;;;;;;;5.72;3.10;;;;;;;19.01;59.98;100906.81;5052244;28;20046;-65
2022/06/21 02:05:36;;;;;;;12.75;3.70;;;;;;;19.06;60.09;100900.94;5024056;28;20061;-66
2022/06/21 02:08:07;;;;;;;7.65;3.40;;;;;;;19.13;59.54;100897.50;5030300;28;20052;-66
2022/06/21 02:10:40;;;;;;;9.75;3.17;;;;;;;19.16;59.52;100894.78;5032991;28;20041;-66
2022/06/21 02:13:11;;;;;;;7.38;2.95;;;;;;;19.08;59.37;100888.25;5026242;28;20058;-66
2022/06/21 02:15:50;;;;;;;8.52;3.28;;;;;;;19.31;59.04;100884.75;5027683;28;20068;-65
2022/06/21 02:18:19;;;;;;;11.95;3.50;;;;;;;19.34;59.10;100884.00;5032323;28;20492;-68
2022/06/21 02:20:56;;;;;;;7.30;2.85;;;;;;;19.08;59.54;100865.91;5029576;28;20049;-64
2022/06/21 02:23:24;;;;;;;23.50;12.77;;;;;;;19.17;59.47;100857.31;5041938;28;20061;-66
2022/06/21 02:25:54;;;;;;;8.40;3.60;;;;;;;19.10;59.89;100843.22;5032472;28;20069;-65
2022/06/21 02:28:23;;;;;;;10.25;3.70;;;;;;;19.05;59.78;100837.91;5048906;28;20053;-66
2022/06/21 02:30:52;;;;;;;13.23;4.78;;;;;;;18.78;60.43;100836.13;5033654;28;20049;-65
2022/06/21 02:33:23;;;;;;;9.80;3.90;;;;;;;18.43;61.39;100819.41;5033771;28;20153;-65
2022/06/21 02:35:58;;;;;;;12.30;4.05;;;;;;;18.66;60.91;100827.88;5033831;28;20057;-65
2022/06/21 02:38:28;;;;;;;9.05;3.33;;;;;;;18.69;60.82;100811.22;5032711;28;20045;-66
2022/06/21 02:41:01;;;;;;;9.52;3.55;;;;;;;18.66;61.24;100805.56;5033235;28;20049;-66
2022/06/21 02:43:36;;;;;;;6.45;3.15;;;;;;;18.71;61.31;100799.69;5012883;28;20061;-66
2022/06/21 02:46:08;;;;;;;9.38;3.65;;;;;;;18.67;60.96;100801.63;5027676;28;20053;-66
2022/06/21 02:48:41;;;;;;;8.70;3.28;;;;;;;18.77;61.18;100798.25;5063561;28;20045;-66
2022/06/21 02:51:12;;;;;;;8.50;3.38;;;;;;;18.71;61.25;100789.34;5018793;28;20053;-66
2022/06/21 02:53:52;;;;;;;6.82;3.20;;;;;;;18.62;61.39;100799.13;5015198;28;20058;-66
2022/06/21 02:56:29;;;;;;;;;;;;;;;18.74;60.83;100796.19;5032690;28;20064;-68
2022/06/21 02:58:58;;;;;;;11.55;3.70;;;;;;;18.65;61.32;100790.00;4999079;28;19925;-65
2022/06/21 03:01:33;;;;;;;8.60;3.83;;;;;;;18.61;61.65;100784.34;5033610;28;20053;-65
2022/06/21 03:04:00;;;;;;;8.13;3.22;;;;;;;18.43;62.03;100783.13;5031652;28;20053;-64
2022/06/21 03:06:30;;;;;;;10.50;3.22;;;;;;;18.34;62.24;100781.72;5032111;28;20053;-66
2022/06/21 03:09:01;;;;;;;11.07;3.95;;;;;;;18.37;62.52;100775.41;5009479;28;20057;-65
2022/06/21 03:11:38;;;;;;;8.80;3.70;;;;;;;18.22;62.86;100770.69;5027225;28;20049;-66
2022/06/21 03:14:08;;;;;;;7.78;3.88;;;;;;;18.09;63.28;100761.63;5034633;28;20573;-66
2022/06/21 03:16:35;;;;;;;8.63;3.95;;;;;;;18.08;63.79;100762.75;5016484;28;20056;-66
2022/06/21 03:19:06;;;;;;;9.18;3.83;;;;;;;18.13;63.75;100748.56;5025862;28;20046;-66
2022/06/21 03:21:35;;;;;;;9.60;4.03;;;;;;;18.09;64.11;100735.72;5047430;28;20057;-66
2022/06/21 03:24:07;;;;;;;8.23;4.00;;;;;;;18.11;63.77;100730.59;5031837;28;20061;-66
2022/06/21 03:26:36;;;;;;;9.93;3.95;;;;;;;18.23;63.99;100720.13;5028337;28;20049;-67
2022/06/21 03:29:03;;;;;;;12.57;4.60;;;;;;;18.21;63.94;100713.28;5032353;28;20520;-65
2022/06/21 03:31:34;;;;;;;12.80;4.32;;;;;;;18.12;64.33;100699.53;5031627;28;20398;-65
2022/06/21 03:34:13;;;;;;;8.40;3.63;;;;;;;18.14;64.15;100694.41;5041930;28;20057;-65
2022/06/21 03:36:41;;;;;;;8.17;4.23;;;;;;;17.88;64.92;100685.84;5024085;28;20058;-66
2022/06/21 03:39:15;;;;;;;8.45;3.95;;;;;;;17.87;65.44;100684.22;5021818;28;20300;-66
2022/06/21 03:41:43;;;;;;;9.07;4.00;;;;;;;17.80;66.18;100667.38;5014513;28;20057;-66
2022/06/21 03:44:14;;;;;;;9.77;4.70;;;;;;;17.92;66.20;100672.81;5029390;28;20160;-65
2022/06/21 03:47:18;;;;;;;7.78;4.15;;;;;;;17.78;66.16;100666.91;5041887;28;20068;-66
2022/06/21 03:49:54;;;;;;;11.75;4.45;;;;;;;17.88;66.49;100661.59;5038031;28;20061;-66
2022/06/21 03:52:42;;;;;;;8.35;4.72;;;;;;;17.73;67.42;100651.28;5071965;28;20056;-66
2022/06/21 03:55:22;;;;;;;13.18;4.85;;;;;;;17.49;68.84;100650.69;5038361;28;20052;-66
2022/06/21 03:57:58;;;;;;;12.43;4.68;;;;;;;17.82;68.84;100642.72;5071529;28;20047;-66
2022/06/21 04:00:30;;;;;;;8.52;4.40;;;;;;;17.77;68.32;100635.47;5039122;28;20040;-66
2022/06/21 04:03:06;;;;;;;13.93;5.28;;;;;;;17.75;68.83;100640.56;5076520;28;20068;-66
2022/06/21 04:05:45;;;;;;;12.63;5.70;;;;;;;17.52;70.45;100628.50;5073100;28;20064;-66
2022/06/21 04:08:22;;;;;;;13.23;5.43;;;;;;;17.39;70.96;100617.78;5052049;28;20063;-65
2022/06/21 04:11:12;;;;;;;11.90;4.70;;;;;;;17.37;71.14;100628.47;5059738;28;20041;-66
2022/06/21 04:14:07;;;;;;;16.30;5.53;;;;;;;17.27;70.87;100615.13;5046916;28;20080;-65
2022/06/21 04:16:46;;;;;;;10.90;5.55;;;;;;;17.38;71.52;100616.97;5055544;28;20056;-66
2022/06/21 04:19:31;;;;;;;10.68;5.68;;;;;;;17.38;72.58;100610.63;5075891;28;20053;-67
2022/06/21 04:22:13;;;;;;;17.23;6.00;;;;;;;17.28;72.96;100608.38;5040957;28;20052;-65
2022/06/21 04:24:49;;;;;;;14.90;6.70;;;;;;;17.04;74.61;100603.81;5074904;28;20432;-66
2022/06/21 04:27:24;;;;;;;14.95;6.10;;;;;;;17.15;73.89;100601.31;5072613;28;20060;-65
2022/06/21 04:29:56;;;;;;;13.75;6.50;;;;;;;16.89;74.32;100599.06;5057918;28;20049;-65
2022/06/21 04:32:29;;;;;;;14.23;6.82;;;;;;;16.55;76.01;100594.16;5057751;28;20071;-65
2022/06/21 04:35:03;;;;;;;13.75;5.55;;;;;;;16.66;75.40;100584.16;5057832;28;20052;-65
2022/06/21 04:37:55;;;;;;;12.45;5.78;;;;;;;16.72;76.07;100586.28;5091073;28;20045;-67
2022/06/21 04:40:28;;;;;;;10.60;5.70;;;;;;;16.80;75.69;100587.28;5051340;28;20049;-65
2022/06/21 04:43:17;;;;;;;11.27;6.15;;;;;;;16.76;75.66;100594.72;5073340;28;20067;-66
2022/06/21 04:45:54;;;;;;;16.75;5.78;;;;;;;16.90;75.22;100597.88;5057598;28;20056;-65
2022/06/21 04:48:52;;;;;;;10.13;5.32;;;;;;;16.70;75.00;100588.63;5071180;28;20542;-66
2022/06/21 04:51:23;;;;;;;12.30;5.90;;;;;;;16.45;76.59;100597.44;5028820;28;20057;-65
2022/06/21 04:54:04;;;;;;;9.80;5.68;;;;;;;16.54;76.96;100592.56;5032095;28;20827;-65
2022/06/21 04:56:59;;;;;;;11.53;6.23;;;;;;;16.47;77.11;100597.94;5066123;28;20057;-65
2022/06/21 04:59:31;;;;;;;13.57;6.32;;;;;;;16.43;77.28;100594.19;5013144;28;20617;-66
2022/06/21 05:01:59;;;;;;;14.88;6.10;;;;;;;16.43;76.79;100597.81;5029735;28;20508;-65
2022/06/21 05:04:37;;;;;;;12.05;6.30;;;;;;;16.32;76.83;100613.38;5017895;28;20058;-66
2022/06/21 05:07:32;;;;;;;16.02;6.38;;;;;;;16.40;76.43;100619.94;4997697;28;20050;-65
2022/06/21 05:10:00;;;;;;;15.13;5.90;;;;;;;16.48;76.72;100619.00;5030997;28;20053;-66
2022/06/21 05:12:37;;;;;;;15.40;6.20;;;;;;;16.58;76.15;100624.06;5045820;28;20076;-66
2022/06/21 05:15:29;;;;;;;13.40;5.57;;;;;;;16.31;76.54;100635.97;5019968;28;20060;-67
2022/06/21 05:18:21;;;;;;;19.05;5.93;;;;;;;16.25;77.02;100640.94;5040112;28;20037;-65
2022/06/21 05:20:53;;;;;;;14.77;6.78;;;;;;;16.28;76.70;100633.91;5023606;28;20049;-66
2022/06/21 05:23:22;;;;;;;14.68;5.82;;;;;;;16.34;76.58;100638.03;5033128;28;20136;-68
2022/06/21 05:25:50;;;;;;;13.50;6.18;;;;;;;16.39;76.50;100626.66;5017406;28;20045;-66
2022/06/21 05:28:30;;;;;;;13.20;5.82;;;;;;;16.45;76.25;100644.69;5035160;28;20049;-67
2022/06/21 05:31:07;;;;;;;13.18;6.10;;;;;;;16.55;76.27;100650.59;5049319;28;20049;-67
2022/06/21 05:33:47;;;;;;;13.60;6.22;;;;;;;16.74;75.82;100647.94;5013946;28;20072;-66
2022/06/21 05:36:19;;;;;;;13.07;6.10;;;;;;;16.82;74.77;100646.19;5032353;28;20053;-68
2022/06/21 05:38:53;;;;;;;10.50;5.57;;;;;;;16.78;75.39;100650.81;5021117;28;20144;-68
2022/06/21 05:41:30;;;;;;;16.17;6.38;;;;;;;17.16;74.57;100644.66;5033319;28;20041;-68
2022/06/21 05:44:00;;;;;;;11.50;6.03;;;;;;;17.28;73.32;100655.69;5031607;28;20073;-68
2022/06/21 05:46:29;;;;;;;10.87;5.57;;;;;;;17.38;72.90;100650.38;5033068;28;20053;-68
2022/06/21 05:48:57;;;;;;;11.38;5.63;;;;;;;17.47;71.42;100637.13;5033173;28;20057;-68
2022/06/21 05:51:31;;;;;;;12.40;5.93;;;;;;;17.42;72.17;100637.38;5042367;28;20080;-68
2022/06/21 05:54:05;;;;;;;13.93;6.53;;;;;;;16.96;73.43;100638.19;5050181;28;20408;-68
2022/06/21 05:56:37;;;;;;;12.35;5.60;;;;;;;17.17;73.46;100635.16;5074808;28;20070;-69
2022/06/21 05:59:07;;;;;;;10.50;6.13;;;;;;;17.36;71.32;100633.25;5054982;28;20060;-66
2022/06/21 06:01:36;;;;;;;14.00;6.20;;;;;;;17.55;71.24;100633.34;4999652;28;20056;-68
2022/06/21 06:04:21;;;;;;;10.80;6.00;;;;;;;17.08;72.28;100631.72;5034215;28;20063;-67
2022/06/21 06:06:49;;;;;;;11.40;5.75;;;;;;;17.16;73.30;100628.78;5054543;28;20048;-68
2022/06/21 06:09:26;;;;;;;14.13;6.38;;;;;;;17.57;71.10;100621.84;5055858;28;20048;-68
2022/06/21 06:12:02;;;;;;;14.52;6.15;;;;;;;17.30;71.40;100623.56;5036759;28;20504;-69
2022/06/21 06:14:41;;;;;;;14.05;6.10;;;;;;;17.40;71.66;100625.00;5055692;28;20060;-69
2022/06/21 06:17:41;;;;;;;15.20;5.88;;;;;;;17.83;70.48;100624.84;5052036;28;20056;-67
2022/06/21 06:20:31;;;;;;;9.13;5.30;;;;;;;18.09;69.65;100619.44;5039212;28;20057;-68
2022/06/21 06:23:24;;;;;;;12.45;6.00;;;;;;;18.11;68.42;100619.06;5056374;28;20060;-69
2022/06/21 06:25:56;;;;;;;11.60;5.45;;;;;;;17.92;68.91;100609.50;5041289;28;20067;-67
2022/06/21 06:28:32;;;;;;;12.90;6.18;;;;;;;17.84;68.90;100615.28;5067352;28;20067;-67
2022/06/21 06:31:05;;;;;;;13.55;6.45;;;;;;;17.92;68.86;100620.66;5052000;28;20051;-69
2022/06/21 06:33:55;;;;;;;10.48;5.32;;;;;;;18.19;68.08;100620.81;5055379;28;20125;-70
2022/06/21 06:36:29;;;;;;;10.80;5.70;;;;;;;18.23;68.04;100630.06;5040905;28;20512;-68
2022/06/21 06:38:58;;;;;;;10.00;5.85;;;;;;;18.32;67.59;100630.66;5066020;28;20557;-69
2022/06/21 06:41:42;;;;;;;11.07;5.90;;;;;;;18.35;67.26;100636.31;5049818;28;20385;-68
2022/06/21 06:44:14;;;;;;;14.13;6.35;;;;;;;18.33;67.82;100638.66;5050288;28;20045;-67
2022/06/21 06:46:44;;;;;;;12.52;5.75;;;;;;;18.54;67.42;100641.91;5050299;28;20052;-69
2022/06/21 06:49:22;;;;;;;;;;;;;;;18.77;66.58;100648.34;5066291;28;20418;-67
2022/06/21 06:51:57;;;;;;;10.70;5.20;;;;;;;19.19;65.38;100644.72;5050388;28;19925;-69
2022/06/21 06:54:33;;;;;;;11.48;5.68;;;;;;;19.34;64.86;100641.81;5054429;28;20056;-68
2022/06/21 06:57:09;;;;;;;10.90;5.82;;;;;;;19.30;65.10;100638.16;5054854;28;20057;-68
2022/06/21 06:59:37;;;;;;;12.70;5.88;;;;;;;19.06;64.92;100632.91;5051801;28;20048;-68
2022/06/21 07:02:14;;;;;;;10.00;5.82;;;;;;;18.98;65.34;100647.94;5056456;28;20144;-68
2022/06/21 07:04:45;;;;;;;10.00;5.85;;;;;;;18.94;65.57;100655.44;5024988;28;20500;-69
2022/06/21 07:07:24;;;;;;;12.65;5.88;;;;;;;19.12;65.60;100656.56;5037272;28;20049;-69
2022/06/21 07:09:54;;;;;;;12.27;5.70;;;;;;;19.34;64.84;100664.16;5048122;28;20057;-69
2022/06/21 07:12:27;;;;;;;9.57;5.90;;;;;;;19.38;65.60;100670.63;5074809;28;20068;-69
2022/06/21 07:14:56;;;;;;;12.65;6.20;;;;;;;19.66;64.30;100676.66;5034239;28;20333;-68
2022/06/21 07:17:45;;;;;;;11.45;5.63;;;;;;;19.60;63.90;100675.38;5051156;28;20052;-69
2022/06/21 07:20:34;;;;;;;11.55;5.55;;;;;;;19.66;63.95;100673.88;5034659;28;20079;-68
2022/06/21 07:23:02;;;;;;;12.02;5.80;;;;;;;19.90;63.74;100679.03;5062297;28;20053;-68
2022/06/21 07:25:37;;;;;;;14.23;5.97;;;;;;;19.96;63.92;100674.72;5059323;28;20049;-68
2022/06/21 07:28:16;;;;;;;11.05;5.70;;;;;;;20.08;63.60;100674.50;5038040;28;20151;-67
2022/06/21 07:30:46;;;;;;;10.82;6.22;;;;;;;20.05;62.90;100675.25;5051903;28;20044;-69
2022/06/21 07:33:38;;;;;;;16.05;5.85;;;;;;;20.02;63.79;100678.00;5037904;28;20104;-68
2022/06/21 07:36:09;;;;;;;12.27;5.28;;;;;;;20.83;61.72;100685.50;5037724;28;20057;-68
2022/06/21 07:38:56;;;;;;;9.70;5.20;;;;;;;20.94;60.70;100683.59;5041362;28;20412;-69
2022/06/21 07:41:25;;;;;;;13.88;5.20;;;;;;;21.18;59.83;100688.66;5045585;28;20064;-68
2022/06/21 07:43:58;;;;;;;11.38;4.75;;;;;;;21.14;59.57;100687.84;5077524;28;20061;-68
2022/06/21 07:46:31;;;;;;;9.75;4.88;;;;;;;21.00;60.40;100681.28;5064666;28;20060;-68
2022/06/21 07:49:37;;;;;;;9.48;4.57;;;;;;;20.88;61.60;100687.13;5079809;28;20053;-68
2022/06/21 07:52:11;;;;;;;9.07;5.60;;;;;;;20.87;61.59;100693.94;5046209;28;20059;-68
2022/06/21 07:54:44;;;;;;;15.00;6.35;;;;;;;20.73;62.09;100685.38;5063954;28;20511;-67
2022/06/21 07:57:20;;;;;;;15.82;6.40;;;;;;;20.52;62.53;100690.72;5062721;28;20484;-68
2022/06/21 07:59:52;;;;;;;10.40;5.20;;;;;;;20.66;62.22;100685.28;5065184;28;20037;-69
2022/06/21 08:08:33;;;;;;;10.65;5.57;;;;;;;20.93;62.16;100686.78;5054930;28;20504;-68
2022/06/21 08:11:07;;;;;;;14.80;5.40;;;;;;;21.06;62.08;100679.75;5050680;28;20065;-68
2022/06/21 08:13:34;;;;;;;9.98;4.95;;;;;;;21.26;61.55;100686.75;5056905;28;20049;-68
2022/06/21 08:16:10;;;;;;;9.30;5.07;;;;;;;21.32;61.07;100685.22;5077675;28;20124;-68
2022/06/21 08:19:00;;;;;;;17.75;6.70;;;;;;;21.05;61.38;100683.75;5041893;28;20394;-68
2022/06/21 08:21:33;;;;;;;12.48;6.47;;;;;;;20.68;62.84;100689.28;5054913;28;20048;-69
2022/06/21 08:24:28;;;;;;;13.50;6.50;;;;;;;21.19;61.80;100703.50;5069219;28;20057;-69
2022/06/21 08:27:34;;;;;;;10.93;6.13;;;;;;;21.17;62.76;100708.66;5060565;28;20571;-68
2022/06/21 08:30:13;;;;;;;10.93;6.30;;;;;;;21.21;63.13;100703.91;5053407;28;20052;-67
2022/06/21 08:32:46;;;;;;;10.85;6.68;;;;;;;21.05;62.87;100704.16;5063902;28;20048;-67
2022/06/21 08:35:20;;;;;;;15.30;6.70;;;;;;;21.11;63.52;100708.19;5063503;28;20460;-66
2022/06/21 08:38:09;;;;;;;12.23;7.20;;;;;;;21.01;64.04;100710.91;5050144;28;20072;-68
2022/06/21 08:40:45;;;;;;;13.75;7.07;;;;;;;21.12;63.89;100714.63;5074026;28;20515;-68
2022/06/21 08:43:49;;;;;;;12.45;6.30;;;;;;;21.56;62.74;100709.84;5069504;28;20087;-68
2022/06/21 08:46:58;;;;;;;13.65;7.20;;;;;;;21.69;61.64;100707.56;5045949;28;20052;-66
2022/06/21 08:50:09;;;;;;;12.13;6.28;;;;;;;21.81;62.09;100707.28;5013373;28;20053;-67
2022/06/21 08:52:58;;;;;;;17.65;8.20;;;;;;;21.77;61.57;100698.81;5026993;28;20053;-67
2022/06/21 08:55:43;;;;;;;18.77;7.80;;;;;;;21.92;60.89;100686.53;5054698;28;20055;-67
2022/06/21 08:58:37;;;;;;;14.52;6.82;;;;;;;22.09;61.40;100687.81;5056571;28;20044;-67
2022/06/21 09:01:15;;;;;;;12.43;6.32;;;;;;;22.40;60.92;100677.97;5070442;28;20080;-67
2022/06/21 09:03:52;;;;;;;15.85;7.18;;;;;;;22.41;60.06;100685.19;5053837;28;20052;-67
2022/06/21 09:06:56;;;;;;;16.52;6.70;;;;;;;22.08;60.95;100689.84;5079934;28;20075;-69
2022/06/21 09:09:45;;;;;;;13.00;6.32;;;;;;;22.11;61.38;100688.22;5077271;28;20425;-68
2022/06/21 09:12:26;;;;;;;10.82;6.45;;;;;;;22.26;61.01;100689.94;5059090;28;20040;-68
2022/06/21 09:15:25;;;;;;;16.38;6.43;;;;;;;22.38;60.68;100683.19;5076789;28;20052;-68
2022/06/21 09:18:05;;;;;;;12.13;6.65;;;;;;;22.42;60.30;100681.19;5053165;28;20408;-69
2022/06/21 09:20:43;;;;;;;15.35;6.85;;;;;;;22.29;61.04;100689.97;5074270;28;20059;-69
2022/06/21 09:23:51;;;;;;;14.07;6.65;;;;;;;22.51;60.82;100690.06;5076897;28;20044;-68
2022/06/21 09:26:43;;;;;;;10.15;6.15;;;;;;;22.75;60.81;100686.56;5053657;28;20056;-70
2022/06/21 09:29:22;;;;;;;10.20;6.20;;;;;;;22.83;60.96;100688.19;5065098;28;20392;-69
2022/06/21 09:32:38;;;;;;;14.23;7.50;;;;;;;22.00;61.91;100687.38;5057837;28;20656;-69
2022/06/21 09:35:15;;;;;;;13.23;7.63;;;;;;;21.80;62.70;100689.66;5062965;28;20052;-70
2022/06/21 09:38:25;;;;;;;11.75;8.10;;;;;;;21.72;63.20;100687.16;5073174;28;20049;-69
2022/06/21 09:41:05;;;;;;;;;;;;;;;21.86;62.80;100690.88;5002328;28;20064;-69
2022/06/21 09:43:43;;;;;;;12.35;6.63;;;;;;;22.24;62.64;100675.50;5056346;28;19927;-69
2022/06/21 09:46:32;;;;;;;10.65;6.38;;;;;;;22.88;60.86;100682.19;5075543;28;20043;-68
2022/06/21 09:49:00;;;;;;;11.17;6.10;;;;;;;23.49;58.58;100669.84;5071898;28;20036;-68
2022/06/21 09:51:59;;;;;;;17.35;7.78;;;;;;;23.11;59.51;100665.78;5066986;28;20287;-68
2022/06/21 09:54:30;;;;;;;12.70;8.05;;;;;;;22.50;60.93;100669.59;5054457;28;20052;-68
2022/06/21 09:57:23;;;;;;;12.32;7.53;;;;;;;21.99;62.83;100674.53;5085572;28;20053;-67
2022/06/21 10:00:10;;;;;;;13.95;8.23;;;;;;;21.71;63.94;100663.09;5079405;28;20052;-67
2022/06/21 10:02:47;;;;;;;15.43;8.73;;;;;;;21.96;63.98;100658.50;5073319;28;20055;-68
2022/06/21 10:05:22;;;;;;;14.93;7.80;;;;;;;22.22;63.06;100653.44;5055809;28;20063;-68
2022/06/21 10:08:06;;;;;;;12.18;7.25;;;;;;;22.21;62.35;100651.03;5081860;28;20064;-73
2022/06/21 10:10:45;;;;;;;12.20;7.70;;;;;;;22.19;62.49;100650.63;5072809;28;20048;-69
2022/06/21 10:13:47;;;;;;;15.00;8.63;;;;;;;21.62;64.16;100645.81;5082079;28;20052;-69
2022/06/21 10:16:28;;;;;;;14.10;8.18;;;;;;;21.39;65.71;100648.03;5056368;28;20056;-68
2022/06/21 10:19:17;;;;;;;17.02;11.45;;;;;;;21.64;64.25;100646.22;5055464;28;20484;-69
2022/06/21 10:21:44;;;;;;;16.30;9.75;;;;;;;21.73;63.79;100644.69;5063459;28;20059;-69
2022/06/21 10:24:39;;;;;;;12.68;9.77;;;;;;;21.45;65.18;100640.88;5067702;28;20511;-68
2022/06/21 10:27:09;;;;;;;19.10;9.45;;;;;;;21.66;64.17;100627.00;5056389;28;20506;-69
2022/06/21 10:30:10;;;;;;;19.30;10.50;;;;;;;22.33;62.98;100620.59;5034629;28;20052;-69
2022/06/21 10:33:07;;;;;;;15.35;9.23;;;;;;;22.24;62.52;100620.19;5070181;28;20041;-70
2022/06/21 10:35:40;;;;;;;13.25;9.55;;;;;;;21.55;63.74;100621.31;5067718;28;20063;-69
2022/06/21 10:38:32;;;;;;;13.73;9.20;;;;;;;21.22;65.50;100625.09;5089125;28;20067;-67
2022/06/21 10:41:38;;;;;;;13.35;8.48;;;;;;;21.53;65.23;100615.31;5067520;28;20510;-66
2022/06/21 10:44:34;;;;;;;16.85;9.27;;;;;;;21.75;64.36;100617.06;5024283;28;20503;-66
2022/06/21 10:47:04;;;;;;;14.18;9.35;;;;;;;21.76;63.55;100609.47;5056165;28;20052;-68
2022/06/21 10:49:50;;;;;;;11.57;8.90;;;;;;;21.95;63.55;100600.81;5079855;28;20053;-66
2022/06/21 10:52:38;;;;;;;18.58;8.38;;;;;;;22.39;61.64;100604.19;5072585;28;20055;-66
2022/06/21 10:55:34;;;;;;;17.48;8.80;;;;;;;22.47;61.64;100596.59;5051696;28;20052;-67
2022/06/21 10:58:08;;;;;;;17.60;9.25;;;;;;;22.47;61.40;100600.22;5061251;28;20064;-67
2022/06/21 11:03:38;;;;;;;20.13;13.18;;;;;;;22.65;61.18;100601.09;5041921;28;20044;-66
2022/06/21 11:06:12;;;;;;;18.55;11.82;;;;;;;22.59;61.33;100593.44;5055641;28;20048;-68
2022/06/21 11:09:01;;;;;;;18.00;10.02;;;;;;;22.46;61.17;100592.16;5049464;28;20049;-69
2022/06/21 11:12:52;;;;;;;13.75;10.25;;;;;;;22.45;61.30;100582.97;5060203;28;20075;-67
2022/06/21 11:15:20;;;;;;;17.58;11.10;;;;;;;22.46;61.10;100584.56;5069151;28;20059;-70
2022/06/21 11:18:20;;;;;;;12.48;9.43;;;;;;;22.99;59.42;100584.69;5060497;28;20531;-67
2022/06/21 11:21:07;;;;;;;15.52;9.02;;;;;;;22.74;60.22;100586.66;5066955;28;20062;-71
2022/06/21 11:24:11;;;;;;;14.77;9.48;;;;;;;23.10;59.50;100583.47;5071674;28;20422;-71
2022/06/21 11:26:51;;;;;;;16.65;9.52;;;;;;;22.61;60.75;100577.84;5022489;28;20068;-71
2022/06/21 11:29:35;;;;;;;19.02;8.50;;;;;;;22.78;60.75;100588.28;5076137;28;20052;-71
2022/06/21 11:32:06;;;;;;;15.35;9.38;;;;;;;23.00;59.46;100587.09;5053229;28;20051;-70
2022/06/21 11:34:45;;;;;;;17.50;9.15;;;;;;;23.17;58.81;100579.91;5075168;28;20048;-70
2022/06/21 11:37:34;;;;;;;16.02;9.48;;;;;;;23.24;58.45;100580.69;5074948;28;20053;-68
2022/06/21 11:40:31;;;;;;;14.27;9.50;;;;;;;23.03;58.59;100574.28;5067787;28;20059;-66
2022/06/21 11:43:02;;;;;;;17.38;9.45;;;;;;;22.97;59.00;100579.47;5074325;28;20060;-67
2022/06/21 11:45:49;;;;;;;12.95;8.27;;;;;;;23.12;58.58;100577.47;5063430;28;20060;-66
2022/06/21 11:48:33;;;;;;;14.32;8.35;;;;;;;23.30;58.86;100581.94;5085049;28;20040;-66
2022/06/21 11:51:10;;;;;;;11.88;8.15;;;;;;;23.55;57.29;100575.47;5065459;28;20128;-67
2022/06/21 11:53:59;;;;;;;17.70;8.35;;;;;;;23.63;56.79;100579.84;5072775;28;20048;-67
2022/06/21 11:56:44;;;;;;;16.10;9.27;;;;;;;23.27;57.28;100571.47;5069191;28;20053;-66
2022/06/21 11:59:28;;;;;;;16.38;8.00;;;;;;;23.30;57.70;100567.88;5058408;28;20052;-71
2022/06/21 12:02:45;;;;;;;15.88;8.52;;;;;;;23.49;57.21;100580.69;5048292;28;20059;-67
2022/06/21 12:05:27;;;;;;;14.07;7.28;;;;;;;24.04;55.83;100575.38;4999231;28;20065;-68
2022/06/21 12:08:00;;;;;;;14.07;7.55;;;;;;;24.14;54.50;100575.31;5051889;28;20064;-68
2022/06/21 12:10:50;;;;;;;11.25;6.88;;;;;;;23.98;55.88;100563.69;5074681;28;20079;-68
2022/06/21 12:13:29;;;;;;;13.82;7.65;;;;;;;23.89;55.63;100562.50;5085142;28;20043;-69
2022/06/21 12:16:19;;;;;;;12.33;6.70;;;;;;;24.37;54.27;100558.72;5078597;28;20052;-67
2022/06/21 12:19:00;;;;;;;14.63;7.13;;;;;;;23.92;54.93;100564.53;5080117;28;20052;-68
2022/06/21 12:21:31;;;;;;;14.55;7.70;;;;;;;23.86;55.78;100564.13;5070089;28;20052;-67